createdAt,value
2022-12-23T00:02:48.804Z,36.60
2022-12-23T00:08:10.453Z,38.90
2022-12-23T00:13:52.048Z,39.70
2022-12-23T00:19:14.071Z,40.00
2022-12-23T00:24:36.001Z,39.00
2022-12-23T00:29:57.502Z,41.70
2022-12-23T00:35:19.964Z,42.20
2022-12-23T00:40:59.956Z,43.20
2022-12-23T00:46:21.905Z,36.70
2022-12-23T00:51:43.813Z,35.80
2022-12-23T00:57:05.843Z,40.00
2022-12-23T01:02:46.437Z,38.80
2022-12-23T01:08:10.475Z,44.70
2022-12-23T01:13:33.032Z,41.60
2022-12-23T01:18:54.640Z,32.20
2022-12-23T01:24:17.169Z,31.10
2022-12-23T01:29:39.395Z,38.60
2022-12-23T01:35:01.324Z,45.00
2022-12-23T01:40:23.070Z,42.80
2022-12-23T01:45:45.331Z,37.50
2022-12-23T01:51:09.503Z,39.00
2022-12-23T01:56:35.626Z,36.40
2022-12-23T02:02:16.509Z,29.70
2022-12-23T02:07:56.953Z,33.80
2022-12-23T02:14:13.034Z,29.30
2022-12-23T02:19:52.777Z,22.50
2022-12-23T02:25:22.421Z,31.20
2022-12-23T02:30:50.638Z,29.70
2022-12-23T02:36:24.661Z,38.20
2022-12-23T02:42:04.435Z,29.50
2022-12-23T02:47:30.558Z,31.30
2022-12-23T02:52:52.609Z,31.70
2022-12-23T02:58:16.548Z,29.40
2022-12-23T03:03:38.943Z,29.00
2022-12-23T03:09:01.307Z,19.40
2022-12-23T03:14:34.930Z,20.00
2022-12-23T03:20:21.709Z,19.30
2022-12-23T03:25:59.277Z,26.20
2022-12-23T03:31:25.801Z,24.20
2022-12-23T03:36:57.591Z,25.00
2022-12-23T03:42:37.184Z,23.70
2022-12-23T03:48:07.123Z,38.00
2022-12-23T03:53:35.631Z,27.60
2022-12-23T03:59:00.240Z,36.80
2022-12-23T04:04:27.578Z,32.70
2022-12-23T04:09:51.617Z,29.20
2022-12-23T04:15:13.645Z,24.60
2022-12-23T04:20:35.269Z,22.80
2022-12-23T04:25:57.276Z,23.30
2022-12-23T04:31:19.248Z,24.90
2022-12-23T04:36:41.158Z,38.10
2022-12-23T04:42:03.091Z,39.70
2022-12-23T04:47:24.716Z,46.70
2022-12-23T04:52:46.352Z,33.20
2022-12-23T04:58:08.474Z,32.80
2022-12-23T05:03:30.905Z,33.50
2022-12-23T05:08:52.736Z,32.00
2022-12-23T05:14:14.973Z,35.80
2022-12-23T05:19:37.095Z,34.60
2022-12-23T05:24:58.923Z,39.00
2022-12-23T05:30:20.958Z,47.00
2022-12-23T05:35:42.881Z,45.60
2022-12-23T05:41:05.216Z,52.00
2022-12-23T05:46:27.406Z,28.60
2022-12-23T05:51:49.473Z,32.10
2022-12-23T05:57:11.402Z,35.10
2022-12-23T06:02:33.489Z,38.10
2022-12-23T06:07:55.584Z,37.60
2022-12-23T06:13:21.016Z,28.80
2022-12-23T06:18:42.837Z,35.70
2022-12-23T06:24:05.463Z,31.10
2022-12-23T06:29:27.597Z,35.00
2022-12-23T06:34:53.491Z,31.10
2022-12-23T06:40:15.369Z,34.90
2022-12-23T06:45:37.426Z,26.50
2022-12-23T06:50:59.126Z,31.10
2022-12-23T06:56:21.364Z,28.00
2022-12-23T07:01:45.177Z,33.90
2022-12-23T07:07:06.923Z,41.20
2022-12-23T07:12:28.747Z,45.40
2022-12-23T07:17:50.487Z,72.70
2022-12-23T07:23:12.502Z,58.80
2022-12-23T07:28:34.135Z,34.20
2022-12-23T07:33:56.064Z,34.70
2022-12-23T07:39:18.064Z,26.80
2022-12-23T07:44:40.022Z,28.00
2022-12-23T07:50:02.250Z,26.70
2022-12-23T07:55:24.282Z,34.90
2022-12-23T08:00:45.811Z,32.00
2022-12-23T08:06:14.430Z,26.00
2022-12-23T08:11:36.294Z,24.50
2022-12-23T08:16:58.174Z,33.10
2022-12-23T08:22:20.149Z,30.20
2022-12-23T08:27:41.889Z,30.20
2022-12-23T08:33:03.806Z,20.70
2022-12-23T08:38:25.739Z,23.70
2022-12-23T08:43:48.190Z,31.80
2022-12-23T08:49:11.000Z,65.90
2022-12-23T08:54:33.233Z,57.40
2022-12-23T08:59:55.060Z,38.00
2022-12-23T09:05:16.895Z,33.90
2022-12-23T09:10:44.437Z,32.60
2022-12-23T09:16:07.050Z,33.00
2022-12-23T09:21:29.099Z,31.20
2022-12-23T09:26:51.130Z,25.90
2022-12-23T09:32:13.259Z,34.30
2022-12-23T09:37:36.385Z,29.90
2022-12-23T09:43:07.053Z,40.40
2022-12-23T09:48:35.024Z,29.70
2022-12-23T09:54:17.548Z,31.80
2022-12-23T09:59:45.555Z,25.60
2022-12-23T10:05:19.728Z,29.70
2022-12-23T10:11:01.796Z,42.50
2022-12-23T10:16:26.723Z,52.10
2022-12-23T10:21:52.211Z,38.70
2022-12-23T10:27:36.031Z,47.30
2022-12-23T10:33:00.569Z,40.70
2022-12-23T10:38:31.519Z,64.50
2022-12-23T10:44:18.435Z,44.50
2022-12-23T10:49:54.822Z,36.90
2022-12-23T10:55:31.270Z,37.40
2022-12-23T11:00:58.833Z,32.60
2022-12-23T11:06:21.683Z,28.80
2022-12-23T11:11:59.068Z,31.40
2022-12-23T11:17:24.901Z,31.90
2022-12-23T11:23:06.207Z,35.70
2022-12-23T11:28:28.650Z,35.40
2022-12-23T11:34:02.011Z,30.30
2022-12-23T11:39:29.141Z,32.10
2022-12-23T11:44:53.719Z,31.80
2022-12-23T11:50:29.085Z,31.30
2022-12-23T11:56:07.136Z,30.30
2022-12-23T12:01:29.385Z,26.80
2022-12-23T12:06:56.275Z,27.10
2022-12-23T12:12:21.300Z,22.20
2022-12-23T12:17:47.554Z,20.80
2022-12-23T12:23:37.929Z,36.80
2022-12-23T12:29:25.660Z,25.30
2022-12-23T12:34:47.494Z,27.40
2022-12-23T12:40:18.449Z,31.20
2022-12-23T12:46:04.084Z,39.30
2022-12-23T12:51:39.673Z,36.50
2022-12-23T12:57:02.485Z,34.90
2022-12-23T13:02:31.343Z,39.30
2022-12-23T13:08:02.068Z,39.90
2022-12-23T13:13:46.189Z,39.90
2022-12-23T13:19:28.390Z,38.90
2022-12-23T13:25:08.587Z,31.30
2022-12-23T13:30:36.763Z,36.20
2022-12-23T13:36:13.572Z,34.60
2022-12-23T13:41:48.490Z,34.00
2022-12-23T13:47:19.052Z,25.70
2022-12-23T13:52:43.986Z,38.20
2022-12-23T13:58:11.942Z,32.60
2022-12-23T14:03:35.275Z,41.90
2022-12-23T14:08:57.404Z,40.20
2022-12-23T14:14:22.926Z,61.30
2022-12-23T14:20:02.854Z,49.30
2022-12-23T14:25:44.142Z,49.60
2022-12-23T14:31:06.307Z,42.70
2022-12-23T14:36:28.789Z,45.60
2022-12-23T14:41:53.436Z,51.90
2022-12-23T14:47:32.132Z,49.40
2022-12-23T14:53:02.363Z,51.00
2022-12-23T14:58:29.592Z,37.90
2022-12-23T15:03:59.076Z,55.40
2022-12-23T15:09:32.463Z,46.10
2022-12-23T15:14:58.002Z,49.80
2022-12-23T15:20:23.307Z,38.20
2022-12-23T15:25:46.884Z,31.90
2022-12-23T15:31:27.512Z,42.70
2022-12-23T15:36:54.551Z,42.10
2022-12-23T15:42:35.644Z,58.10
2022-12-23T15:47:57.748Z,53.30
2022-12-23T15:53:20.068Z,48.80
2022-12-23T15:58:44.120Z,47.90
2022-12-23T16:04:07.146Z,47.80
2022-12-23T16:09:36.105Z,46.90
2022-12-23T16:15:01.011Z,48.80
2022-12-23T16:20:26.885Z,43.20
2022-12-23T16:25:51.774Z,45.20
2022-12-23T16:31:16.910Z,44.20
2022-12-23T16:36:38.931Z,49.70
2022-12-23T16:42:00.821Z,54.50
2022-12-23T16:47:23.159Z,43.90
2022-12-23T16:52:44.777Z,46.60
2022-12-23T16:58:06.609Z,51.80
2022-12-23T17:03:28.639Z,47.30
2022-12-23T17:08:51.172Z,52.60
2022-12-23T17:14:19.117Z,59.10
2022-12-23T17:19:40.972Z,41.00
2022-12-23T17:25:04.543Z,48.90
2022-12-23T17:30:26.615Z,47.50
2022-12-23T17:35:48.550Z,46.30
2022-12-23T17:41:27.904Z,43.40
2022-12-23T17:46:49.764Z,50.30
2022-12-23T17:52:20.277Z,51.60
2022-12-23T17:57:42.250Z,53.20
2022-12-23T18:03:07.516Z,55.50
2022-12-23T18:08:29.323Z,42.80
2022-12-23T18:13:52.065Z,38.60
2022-12-23T18:19:18.295Z,45.80
2022-12-23T18:24:39.851Z,38.70
2022-12-23T18:30:01.732Z,42.70
2022-12-23T18:35:28.110Z,43.70
2022-12-23T18:40:53.946Z,40.20
2022-12-23T18:46:15.872Z,45.20
2022-12-23T18:51:37.932Z,45.40
2022-12-23T18:57:01.212Z,53.50
2022-12-23T19:02:23.128Z,47.50
2022-12-23T19:07:46.500Z,36.00
2022-12-23T19:13:09.338Z,37.90
2022-12-23T19:18:31.123Z,36.80
2022-12-23T19:23:53.156Z,54.20
2022-12-23T19:29:15.076Z,43.00
2022-12-23T19:34:36.875Z,38.20
2022-12-23T19:39:59.968Z,51.40
2022-12-23T19:45:21.681Z,35.00
2022-12-23T19:50:43.274Z,31.20
2022-12-23T19:56:06.609Z,33.80
2022-12-23T20:01:28.751Z,43.10
2022-12-23T20:06:51.435Z,34.30
2022-12-23T20:12:13.113Z,27.50
2022-12-23T20:17:35.099Z,30.20
2022-12-23T20:22:57.034Z,28.60
2022-12-23T20:28:19.613Z,35.40
2022-12-23T20:33:45.042Z,24.00
2022-12-23T20:39:06.975Z,26.90
2022-12-23T20:44:37.267Z,30.10
2022-12-23T20:49:59.717Z,32.00
2022-12-23T20:55:21.227Z,25.60
2022-12-23T21:00:42.970Z,34.90
2022-12-23T21:06:06.009Z,32.60
2022-12-23T21:11:29.641Z,31.40
2022-12-23T21:16:51.669Z,33.10
2022-12-23T21:22:13.340Z,32.00
2022-12-23T21:27:35.331Z,31.50
2022-12-23T21:33:00.376Z,32.40
2022-12-23T21:38:22.101Z,31.90
2022-12-23T21:43:44.342Z,38.00
2022-12-23T21:49:06.265Z,35.50
2022-12-23T21:54:28.012Z,44.90
2022-12-23T21:59:50.117Z,45.80
2022-12-23T22:05:12.042Z,37.00
2022-12-23T22:10:37.597Z,38.80
2022-12-23T22:15:59.340Z,35.90
2022-12-23T22:21:23.782Z,37.30
2022-12-23T22:26:45.639Z,39.70
2022-12-23T22:32:07.760Z,35.70
2022-12-23T22:37:29.444Z,87.80
2022-12-23T22:42:51.371Z,48.20
2022-12-23T22:48:13.708Z,99.10
2022-12-23T22:53:36.640Z,125.30
2022-12-23T22:58:58.890Z,123.90
2022-12-23T23:04:20.905Z,83.20
2022-12-23T23:09:42.827Z,85.80
2022-12-23T23:15:05.662Z,56.40
2022-12-23T23:20:27.786Z,38.50
2022-12-23T23:25:49.730Z,37.00
2022-12-23T23:36:54.143Z,52.50
2022-12-23T23:42:18.002Z,62.40
2022-12-23T23:47:40.013Z,42.60
2022-12-23T23:53:01.547Z,58.30
2022-12-23T23:58:23.507Z,43.70
